Time;durP1;ratioP1;P1;durP2;ratioP2;P2;SDS_P1;SDS_P2;PMS_P1;PMS_P2;Temp;Humidity;BMP_temperature;BMP_pressure;BME280_temperature;BME280_humidity;BME280_pressure;Samples;Min_cycle;Max_cycle;Signal;HPM_P1;HPM_P2
2022/01/18 00:02:03;;;;;;;12.85;6.78;;;22.40;38.50;;;;;;6104724;28;80705;-68
2022/01/18 00:05:03;;;;;;;18.92;7.53;;;22.30;38.70;;;;;;6111499;28;82477;-67
2022/01/18 00:08:04;;;;;;;17.05;7.70;;;22.30;38.70;;;;;;6109356;28;81793;-67
2022/01/18 00:11:05;;;;;;;15.65;6.72;;;22.30;38.80;;;;;;6108247;28;80849;-67
2022/01/18 00:14:13;;;;;;;14.00;6.85;;;22.30;38.90;;;;;;6091315;28;81841;-67
2022/01/18 00:17:34;;;;;;;15.43;7.30;;;22.30;38.90;;;;;;6110715;28;83372;-68
2022/01/18 00:23:45;;;;;;;17.45;7.53;;;22.30;39.20;;;;;;6092375;28;81807;-66
2022/01/18 00:26:46;;;;;;;18.23;7.45;;;22.30;39.20;;;;;;6093044;28;80647;-67
2022/01/18 00:30:12;;;;;;;16.30;7.15;;;22.30;39.30;;;;;;6079941;28;80362;-66
2022/01/18 00:36:27;;;;;;;15.68;6.93;;;22.30;39.20;;;;;;6094874;28;80358;-67
2022/01/18 00:39:28;;;;;;;12.15;5.90;;;22.30;39.30;;;;;;6110128;28;81758;-67
2022/01/18 00:42:28;;;;;;;14.20;6.82;;;22.20;39.10;;;;;;6111146;28;81636;-67
2022/01/18 00:45:29;;;;;;;15.02;6.03;;;22.20;39.20;;;;;;6110126;28;80419;-67
2022/01/18 00:48:34;;;;;;;12.70;6.68;;;22.20;39.10;;;;;;6107918;28;81821;-67
2022/01/18 00:51:37;;;;;;;13.30;6.00;;;22.20;39.10;;;;;;6110288;28;81689;-67
2022/01/18 00:54:41;;;;;;;12.55;5.93;;;22.20;39.20;;;;;;6104609;28;80889;-67
2022/01/18 00:57:41;;;;;;;16.05;6.30;;;22.20;39.10;;;;;;6092782;28;81633;-67
2022/01/18 01:00:42;;;;;;;12.07;5.72;;;22.20;39.00;;;;;;6092350;28;82263;-68
2022/01/18 01:03:42;;;;;;;11.45;5.88;;;22.20;39.10;;;;;;6109791;28;80797;-68
2022/01/18 01:06:43;;;;;;;12.68;5.80;;;22.20;39.10;;;;;;6105123;28;80636;-68
2022/01/18 01:09:43;;;;;;;12.60;6.00;;;22.20;39.10;;;;;;6107614;28;82030;-68
2022/01/18 01:12:44;;;;;;;13.57;5.63;;;22.20;39.10;;;;;;6107575;28;80922;-68
2022/01/18 01:42:31;;;;;;;13.35;6.30;;;22.20;38.40;;;;;;6086838;28;82516;-67
2022/01/18 01:45:14;;;;;;;;;;;22.10;38.20;;;;;;6088703;28;82181;-68
2022/01/18 01:48:17;;;;;;;14.00;6.28;;;22.20;38.20;;;;;;6115786;28;80253;-68
2022/01/18 01:51:18;;;;;;;11.13;5.28;;;22.20;38.20;;;;;;6109297;28;80719;-67
2022/01/18 01:54:18;;;;;;;9.00;4.70;;;22.20;38.20;;;;;;6108983;28;81348;-68
2022/01/18 01:57:19;;;;;;;10.23;4.93;;;22.20;38.10;;;;;;6092080;28;81673;-68
2022/01/18 02:00:20;;;;;;;11.85;5.55;;;22.20;38.10;;;;;;6094160;28;81468;-67
2022/01/18 02:03:20;;;;;;;11.98;4.80;;;22.20;38.10;;;;;;6108084;28;80872;-68
2022/01/18 02:06:22;;;;;;;11.40;4.72;;;22.10;38.00;;;;;;6109658;28;80455;-68
2022/01/18 02:09:22;;;;;;;16.35;5.25;;;22.20;38.10;;;;;;6109633;28;80446;-68
2022/01/18 02:12:23;;;;;;;10.80;4.60;;;22.20;38.10;;;;;;6103494;28;80806;-67
2022/01/18 02:15:23;;;;;;;10.55;4.93;;;22.10;37.90;;;;;;6081540;28;82280;-68
2022/01/18 02:21:46;;;;;;;11.48;4.70;;;22.10;37.90;;;;;;6106736;28;80433;-67
2022/01/18 02:24:47;;;;;;;14.15;5.32;;;22.10;37.90;;;;;;6101475;28;81138;-67
2022/01/18 02:27:47;;;;;;;9.23;4.45;;;22.10;37.90;;;;;;6100669;28;81429;-66
2022/01/18 02:30:48;;;;;;;7.25;3.92;;;22.10;38.00;;;;;;6102275;28;80161;-66
2022/01/18 02:33:48;;;;;;;14.00;5.10;;;22.10;38.00;;;;;;6109940;28;80557;-67
2022/01/18 02:36:49;;;;;;;9.95;4.35;;;22.10;38.00;;;;;;6114405;28;80648;-67
2022/01/18 02:39:49;;;;;;;12.73;4.88;;;22.10;38.00;;;;;;6112697;28;81285;-67
2022/01/18 02:42:57;;;;;;;10.15;4.70;;;22.10;38.00;;;;;;6111424;28;81701;-66
2022/01/18 02:45:57;;;;;;;8.77;3.88;;;22.10;38.10;;;;;;6098194;28;80229;-67
2022/01/18 02:48:58;;;;;;;10.75;4.63;;;22.10;38.10;;;;;;6093866;28;81312;-67
2022/01/18 02:51:58;;;;;;;11.43;4.50;;;22.10;38.00;;;;;;6092803;28;82268;-67
2022/01/18 02:54:59;;;;;;;10.90;4.40;;;22.10;38.20;;;;;;6110446;28;81367;-68
2022/01/18 02:58:05;;;;;;;13.60;5.30;;;22.10;38.20;;;;;;6089391;28;81990;-67
2022/01/18 03:04:09;;;;;;;11.10;4.72;;;22.10;38.00;;;;;;6101216;28;81406;-67
2022/01/18 03:07:10;;;;;;;8.98;4.32;;;22.10;38.00;;;;;;6101618;28;80890;-67
2022/01/18 03:10:10;;;;;;;10.70;4.53;;;22.10;38.00;;;;;;6099051;28;81102;-67
2022/01/18 03:13:11;;;;;;;10.38;4.78;;;22.10;38.00;;;;;;6109569;28;81810;-67
2022/01/18 03:16:11;;;;;;;9.88;4.95;;;22.10;38.40;;;;;;6110313;28;80788;-68
2022/01/18 03:19:12;;;;;;;9.43;3.78;;;22.10;37.70;;;;;;6095385;28;80397;-68
2022/01/18 03:22:13;;;;;;;12.27;4.22;;;22.10;37.70;;;;;;6109390;28;80319;-68
2022/01/18 03:28:29;;;;;;;9.53;4.47;;;22.20;37.40;;;;;;6104294;28;80709;-67
2022/01/18 03:31:29;;;;;;;9.60;4.75;;;22.20;37.90;;;;;;6103874;28;80224;-68
2022/01/18 03:34:30;;;;;;;10.73;4.90;;;22.30;37.50;;;;;;6095915;28;80500;-69
2022/01/18 03:37:30;;;;;;;7.80;4.15;;;22.30;37.90;;;;;;6110824;28;80253;-67
2022/01/18 03:40:31;;;;;;;10.20;4.32;;;22.40;37.90;;;;;;6112524;28;80625;-70
2022/01/18 03:43:31;;;;;;;8.52;4.05;;;22.40;37.70;;;;;;6110212;28;80352;-68
2022/01/18 03:46:36;;;;;;;9.55;4.53;;;22.50;37.70;;;;;;6111347;28;80416;-68
2022/01/18 03:49:36;;;;;;;11.13;4.68;;;22.50;37.90;;;;;;6110315;28;80693;-67
2022/01/18 03:52:37;;;;;;;12.68;4.28;;;22.60;38.30;;;;;;6109723;28;80721;-67
2022/01/18 03:55:37;;;;;;;11.05;5.20;;;22.60;38.10;;;;;;6109926;28;80421;-68
2022/01/18 03:58:38;;;;;;;14.85;5.28;;;22.60;38.00;;;;;;6109459;28;82773;-68
2022/01/18 04:01:38;;;;;;;8.57;4.22;;;22.60;38.00;;;;;;6109144;28;81143;-68
2022/01/18 04:04:39;;;;;;;10.27;4.65;;;22.60;38.00;;;;;;6109291;28;80844;-68
2022/01/18 04:07:39;;;;;;;10.10;3.70;;;22.70;37.80;;;;;;6111530;28;82234;-67
2022/01/18 04:10:40;;;;;;;8.98;4.22;;;22.70;37.70;;;;;;6112801;28;80444;-67
2022/01/18 04:13:40;;;;;;;8.07;3.42;;;22.70;37.60;;;;;;6107247;28;80370;-68
2022/01/18 04:16:59;;;;;;;11.00;4.13;;;22.70;37.60;;;;;;6107922;28;80965;-67
2022/01/18 04:29:39;;;;;;;6.70;3.45;;;22.70;37.50;;;;;;6101731;28;80393;-66
2022/01/18 04:32:39;;;;;;;9.10;3.67;;;22.70;37.40;;;;;;6106108;28;80240;-66
2022/01/18 04:35:40;;;;;;;8.95;3.97;;;22.80;37.50;;;;;;6111100;28;80881;-66
2022/01/18 04:38:40;;;;;;;9.20;3.53;;;22.80;37.40;;;;;;6090664;28;81424;-66
2022/01/18 04:41:41;;;;;;;11.05;4.13;;;22.80;37.40;;;;;;6096887;28;80123;-66
2022/01/18 04:51:20;;;;;;;9.77;3.38;;;22.80;37.30;;;;;;6104153;28;81377;-67
2022/01/18 04:54:23;;;;;;;7.70;3.55;;;22.80;37.20;;;;;;6082897;28;81616;-67
2022/01/18 05:00:24;;;;;;;7.13;3.25;;;22.80;37.20;;;;;;6100031;28;80352;-69
2022/01/18 05:03:24;;;;;;;6.88;3.47;;;22.90;37.30;;;;;;6096962;28;81723;-68
2022/01/18 05:06:25;;;;;;;6.05;3.42;;;22.90;37.20;;;;;;6110804;28;80642;-69
2022/01/18 05:09:25;;;;;;;8.20;3.60;;;22.90;37.20;;;;;;6103672;28;80878;-68
2022/01/18 05:12:44;;;;;;;10.20;3.90;;;22.90;37.50;;;;;;6106811;28;80202;-71
2022/01/18 05:15:51;;;;;;;7.00;3.80;;;23.00;37.30;;;;;;6101945;28;80478;-70
2022/01/18 05:19:02;;;;;;;9.05;4.32;;;23.00;37.20;;;;;;6103592;28;81477;-69
2022/01/18 05:25:06;;;;;;;9.63;3.72;;;23.10;37.20;;;;;;6102505;28;80529;-68
2022/01/18 05:28:07;;;;;;;10.65;4.18;;;23.10;37.10;;;;;;6101595;28;81403;-65
2022/01/18 05:31:07;;;;;;;9.32;3.67;;;23.10;37.20;;;;;;6103233;28;80067;-67
2022/01/18 05:34:08;;;;;;;6.90;3.65;;;23.20;37.70;;;;;;6110263;28;80723;-66
2022/01/18 05:37:08;;;;;;;9.80;4.63;;;23.20;39.10;;;;;;6105326;28;80540;-65
2022/01/18 05:40:09;;;;;;;9.65;3.08;;;23.30;39.60;;;;;;6108356;28;82321;-67
2022/01/18 05:43:10;;;;;;;6.78;2.92;;;23.20;39.60;;;;;;6106961;28;81871;-68
2022/01/18 05:46:10;;;;;;;7.35;3.08;;;23.20;40.00;;;;;;6110634;28;80669;-67
2022/01/18 05:49:11;;;;;;;3.70;2.10;;;23.20;40.00;;;;;;6103485;28;80237;-67
2022/01/18 05:52:11;;;;;;;4.43;1.95;;;23.20;40.10;;;;;;6106426;28;80404;-66
2022/01/18 05:55:12;;;;;;;5.53;1.92;;;23.20;40.90;;;;;;6106952;28;80705;-66
2022/01/18 05:58:12;;;;;;;7.18;2.70;;;23.20;42.10;;;;;;6089568;28;80379;-67
2022/01/18 06:01:25;;;;;;;3.95;1.98;;;23.10;42.70;;;;;;6079117;28;81763;-66
2022/01/18 06:07:44;;;;;;;6.43;2.20;;;23.10;43.50;;;;;;6109874;28;80424;-67
2022/01/18 06:10:45;;;;;;;4.05;2.10;;;23.10;44.50;;;;;;6109862;28;83278;-67
2022/01/18 06:13:45;;;;;;;3.63;1.63;;;23.10;44.30;;;;;;6095700;28;80632;-66
2022/01/18 06:16:46;;;;;;;3.65;1.75;;;22.90;44.90;;;;;;6095006;28;82679;-67
2022/01/18 06:19:46;;;;;;;5.55;2.35;;;22.90;45.50;;;;;;6111803;28;81912;-68
2022/01/18 06:22:51;;;;;;;2.22;1.42;;;22.90;45.60;;;;;;6105230;28;80691;-64
2022/01/18 06:25:51;;;;;;;2.83;1.73;;;22.90;46.30;;;;;;6081673;28;83932;-66
2022/01/18 06:28:53;;;;;;;3.20;2.17;;;22.90;46.30;;;;;;6102319;28;80828;-66
2022/01/18 06:31:53;;;;;;;3.90;2.20;;;22.90;46.60;;;;;;6098729;28;81559;-66
2022/01/18 06:34:54;;;;;;;2.60;1.80;;;22.80;46.70;;;;;;6115192;28;80459;-68
2022/01/18 06:37:54;;;;;;;6.07;2.20;;;22.80;47.50;;;;;;6096772;28;80286;-69
2022/01/18 06:40:55;;;;;;;5.97;2.63;;;22.80;47.70;;;;;;6082878;28;81996;-66
2022/01/18 06:43:55;;;;;;;4.40;2.45;;;22.80;47.20;;;;;;6110139;28;81529;-69
2022/01/18 06:46:56;;;;;;;5.13;2.38;;;22.90;46.70;;;;;;6100796;28;80370;-70
2022/01/18 06:49:56;;;;;;;4.93;2.65;;;22.80;46.60;;;;;;6107451;28;80352;-68
2022/01/18 06:52:57;;;;;;;4.88;2.60;;;22.80;46.30;;;;;;6104744;28;80844;-67
2022/01/18 06:55:57;;;;;;;8.15;3.50;;;22.80;46.10;;;;;;6083721;28;80536;-67
2022/01/18 06:58:58;;;;;;;7.88;2.92;;;22.80;46.10;;;;;;6097324;28;81583;-68
2022/01/18 07:01:59;;;;;;;7.88;2.75;;;22.80;45.90;;;;;;6099197;28;80792;-69
2022/01/18 07:05:00;;;;;;;4.93;2.25;;;22.80;45.90;;;;;;6105145;28;85185;-69
2022/01/18 07:08:00;;;;;;;8.07;3.08;;;22.80;46.00;;;;;;6104977;28;80499;-67
2022/01/18 07:11:01;;;;;;;7.13;2.60;;;22.80;45.80;;;;;;6088317;28;81025;-67
2022/01/18 07:14:01;;;;;;;9.60;2.58;;;22.80;45.30;;;;;;6107433;28;81086;-66
2022/01/18 07:17:02;;;;;;;13.95;3.08;;;22.80;45.00;;;;;;6086034;28;80453;-65
2022/01/18 07:20:02;;;;;;;7.50;3.30;;;22.80;45.30;;;;;;6104865;28;80649;-67
2022/01/18 07:23:03;;;;;;;9.15;3.40;;;22.80;44.90;;;;;;6103138;28;81108;-66
2022/01/18 07:26:04;;;;;;;9.70;3.30;;;22.80;45.20;;;;;;6099301;28;82011;-66
2022/01/18 07:29:04;;;;;;;6.47;3.33;;;22.80;45.00;;;;;;6102940;28;81097;-66
2022/01/18 07:32:05;;;;;;;6.90;3.20;;;22.70;44.70;;;;;;6098431;28;81811;-65
2022/01/18 07:35:06;;;;;;;8.70;2.90;;;22.80;45.10;;;;;;6103191;28;81184;-64
2022/01/18 07:38:06;;;;;;;6.80;2.80;;;22.80;45.40;;;;;;6107998;28;80909;-65
2022/01/18 07:41:07;;;;;;;6.15;2.40;;;22.80;44.50;;;;;;6107550;28;81963;-64
2022/01/18 07:44:07;;;;;;;5.20;2.67;;;22.80;44.60;;;;;;6097370;28;81193;-66
2022/01/18 07:47:08;;;;;;;7.95;2.97;;;22.80;44.20;;;;;;6098511;28;82154;-65
2022/01/18 07:50:08;;;;;;;6.57;3.05;;;22.80;44.30;;;;;;6107000;28;87290;-66
2022/01/18 07:53:10;;;;;;;5.65;2.80;;;22.80;44.00;;;;;;6101047;28;79995;-66
2022/01/18 07:56:10;;;;;;;7.28;3.20;;;22.80;44.00;;;;;;6097085;28;81742;-64
2022/01/18 07:59:11;;;;;;;5.53;2.88;;;22.80;44.10;;;;;;6105827;28;80402;-65
2022/01/18 08:02:13;;;;;;;7.55;3.35;;;22.80;43.90;;;;;;6099836;28;82234;-65
2022/01/18 08:05:14;;;;;;;6.45;2.88;;;22.80;43.60;;;;;;6103863;28;81456;-67
2022/01/18 08:08:14;;;;;;;5.63;2.40;;;22.80;43.50;;;;;;6103091;28;81815;-65
2022/01/18 08:11:15;;;;;;;5.60;2.70;;;22.80;43.50;;;;;;6102423;28;81803;-63
2022/01/18 08:14:17;;;;;;;6.03;2.50;;;22.80;43.80;;;;;;6100786;28;80644;-66
2022/01/18 08:17:17;;;;;;;12.13;2.85;;;22.80;44.00;;;;;;6101071;28;80859;-64
2022/01/18 08:20:18;;;;;;;5.80;2.78;;;22.90;44.80;;;;;;6100173;28;81365;-63
2022/01/18 08:23:18;;;;;;;10.68;3.15;;;22.90;45.20;;;;;;6098912;28;81662;-64
2022/01/18 08:26:19;;;;;;;9.40;2.90;;;22.80;45.60;;;;;;6098450;28;82249;-64
2022/01/18 08:29:19;;;;;;;13.10;3.40;;;22.90;46.40;;;;;;6098698;28;80705;-64
2022/01/18 08:32:20;;;;;;;7.07;2.83;;;22.80;46.80;;;;;;6077231;28;80992;-64
2022/01/18 08:35:20;;;;;;;8.30;2.75;;;22.80;46.70;;;;;;6109572;28;81701;-65
2022/01/18 08:38:22;;;;;;;9.43;3.85;;;22.90;46.80;;;;;;6089205;28;80476;-66
2022/01/18 08:41:22;;;;;;;7.10;2.83;;;22.90;46.80;;;;;;6103744;28;80602;-64
2022/01/18 08:44:23;;;;;;;5.93;2.70;;;22.90;47.20;;;;;;6104412;28;81815;-63
2022/01/18 08:47:24;;;;;;;4.05;2.58;;;23.00;47.30;;;;;;6103905;28;81565;-64
2022/01/18 08:50:24;;;;;;;10.48;2.80;;;23.00;47.70;;;;;;6103625;28;81823;-62
2022/01/18 08:53:25;;;;;;;9.05;2.75;;;22.90;47.60;;;;;;6106482;28;81569;-63
2022/01/18 08:56:26;;;;;;;100.50;45.55;;;22.90;47.90;;;;;;6106224;28;80130;-64
2022/01/18 08:59:26;;;;;;;164.23;76.40;;;22.90;48.40;;;;;;6091756;28;83413;-68
2022/01/18 09:02:27;;;;;;;137.02;58.72;;;22.90;49.20;;;;;;6095497;28;83728;-65
2022/01/18 09:05:27;;;;;;;115.00;49.13;;;22.90;48.90;;;;;;6106370;28;84470;-66
2022/01/18 09:08:28;;;;;;;98.13;42.83;;;22.80;48.70;;;;;;6102351;28;82907;-66
2022/01/18 09:11:31;;;;;;;109.18;46.25;;;22.80;48.80;;;;;;6088482;28;83049;-65
2022/01/18 09:14:31;;;;;;;193.00;89.03;;;22.80;48.50;;;;;;6103383;28;84467;-63
2022/01/18 09:17:32;;;;;;;181.55;81.53;;;22.80;49.00;;;;;;6105879;28;83522;-63
2022/01/18 09:20:32;;;;;;;258.35;116.85;;;22.80;48.20;;;;;;6094526;28;83024;-63
2022/01/18 09:23:33;;;;;;;218.38;96.75;;;22.80;48.70;;;;;;6096438;28;86453;-64
2022/01/18 09:26:33;;;;;;;205.07;94.03;;;22.80;48.60;;;;;;6095312;28;85852;-63
2022/01/18 09:29:34;;;;;;;159.18;74.22;;;22.80;48.90;;;;;;6090596;28;83296;-63
2022/01/18 09:32:34;;;;;;;120.60;58.10;;;22.80;48.30;;;;;;6094105;28;84218;-63
2022/01/18 09:35:35;;;;;;;115.05;49.00;;;22.70;48.10;;;;;;6100153;28;83544;-64
2022/01/18 09:38:36;;;;;;;96.93;43.00;;;22.70;49.10;;;;;;6095765;28;84068;-63
2022/01/18 09:41:39;;;;;;;86.57;39.53;;;22.70;48.30;;;;;;6105662;28;83404;-63
2022/01/18 09:44:40;;;;;;;80.03;36.83;;;22.70;47.10;;;;;;6099189;28;84454;-63
2022/01/18 09:47:40;;;;;;;63.92;30.42;;;22.70;46.90;;;;;;6089358;28;82894;-63
2022/01/18 09:50:41;;;;;;;50.58;24.48;;;22.70;46.90;;;;;;6106323;28;83407;-63
2022/01/18 09:53:42;;;;;;;53.72;23.33;;;22.70;47.10;;;;;;6090265;28;86211;-63
2022/01/18 09:56:42;;;;;;;48.60;21.02;;;22.80;47.30;;;;;;6089336;28;83158;-63
2022/01/18 09:59:43;;;;;;;39.78;18.25;;;22.80;47.20;;;;;;6100191;28;83378;-64
2022/01/18 10:02:43;;;;;;;34.15;17.77;;;22.90;47.20;;;;;;6108902;28;83823;-62
2022/01/18 10:05:44;;;;;;;32.90;16.33;;;22.90;47.80;;;;;;6087483;28;83751;-62
2022/01/18 10:08:44;;;;;;;32.47;15.48;;;22.90;47.50;;;;;;6105046;28;83433;-62
2022/01/18 10:11:45;;;;;;;29.00;13.90;;;23.00;47.70;;;;;;6083139;28;85174;-63
2022/01/18 10:14:45;;;;;;;32.03;13.82;;;23.00;48.20;;;;;;6106483;28;83228;-63
2022/01/18 10:17:46;;;;;;;30.42;11.88;;;23.00;48.60;;;;;;6103032;28;83685;-63
2022/01/18 10:20:46;;;;;;;26.60;10.88;;;23.10;49.30;;;;;;6101904;28;83330;-63
2022/01/18 10:23:48;;;;;;;24.23;10.23;;;23.10;48.90;;;;;;6096857;28;84185;-62
2022/01/18 10:26:49;;;;;;;26.42;10.60;;;23.20;48.80;;;;;;6097037;28;83279;-63
2022/01/18 10:29:50;;;;;;;23.48;9.50;;;23.20;49.10;;;;;;6106513;28;84341;-63
2022/01/18 10:32:50;;;;;;;17.25;8.52;;;23.20;49.30;;;;;;6097644;28;85073;-64
2022/01/18 10:35:51;;;;;;;19.23;8.30;;;23.20;49.30;;;;;;6100690;28;80619;-63
2022/01/18 10:38:51;;;;;;;18.42;8.63;;;23.20;49.40;;;;;;6111631;28;81438;-63
2022/01/18 10:41:52;;;;;;;12.98;7.25;;;23.30;49.40;;;;;;6094405;28;81865;-63
2022/01/18 10:44:52;;;;;;;15.23;7.55;;;23.30;49.40;;;;;;6107779;28;80522;-62
2022/01/18 10:47:57;;;;;;;16.00;6.97;;;23.40;49.40;;;;;;6105805;28;82763;-62
2022/01/18 10:50:57;;;;;;;18.70;6.75;;;23.30;49.30;;;;;;6110935;28;81779;-63
2022/01/18 10:53:58;;;;;;;15.27;6.47;;;23.30;49.30;;;;;;6096239;28;87533;-63
2022/01/18 10:56:58;;;;;;;14.82;7.15;;;23.30;49.00;;;;;;6089572;28;81854;-62
2022/01/18 10:59:59;;;;;;;15.18;5.80;;;23.30;49.10;;;;;;6098011;28;82369;-62
2022/01/18 11:03:00;;;;;;;14.15;6.45;;;23.30;49.10;;;;;;6101746;28;80581;-63
2022/01/18 11:06:00;;;;;;;10.02;5.00;;;23.30;49.00;;;;;;6101953;28;81192;-62
2022/01/18 11:09:01;;;;;;;13.80;5.43;;;23.30;48.80;;;;;;6096502;28;80863;-64
2022/01/18 11:12:01;;;;;;;11.02;5.05;;;23.30;48.70;;;;;;6102811;28;80601;-63
2022/01/18 11:15:07;;;;;;;8.88;4.78;;;23.30;49.00;;;;;;6111967;28;80583;-63
2022/01/18 11:18:15;;;;;;;14.90;8.07;;;23.30;49.10;;;;;;6108373;28;87154;-64
2022/01/18 11:21:19;;;;;;;33.30;15.48;;;23.30;49.10;;;;;;6106229;28;80089;-64
2022/01/18 11:24:19;;;;;;;57.08;19.98;;;23.40;48.80;;;;;;6104891;28;82964;-65
2022/01/18 11:27:20;;;;;;;47.50;17.10;;;23.40;48.60;;;;;;6105777;28;83163;-67
2022/01/18 11:30:20;;;;;;;45.47;17.67;;;23.50;48.50;;;;;;6105140;28;82982;-66
2022/01/18 11:33:21;;;;;;;37.83;17.55;;;23.50;48.50;;;;;;6105364;28;84198;-66
2022/01/18 11:36:21;;;;;;;45.75;17.98;;;23.50;48.50;;;;;;6087460;28;83414;-65
2022/01/18 11:39:22;;;;;;;46.80;18.55;;;23.50;48.20;;;;;;6099307;28;85766;-64
2022/01/18 11:42:22;;;;;;;44.58;18.67;;;23.50;47.90;;;;;;6104833;28;82819;-64
2022/01/18 11:45:23;;;;;;;44.50;18.40;;;23.40;47.30;;;;;;6105453;28;83043;-64
2022/01/18 11:48:24;;;;;;;50.38;18.55;;;23.40;46.60;;;;;;6103700;28;82971;-65
2022/01/18 11:51:26;;;;;;;35.30;17.77;;;23.30;46.60;;;;;;6095040;28;84038;-64
2022/01/18 11:54:32;;;;;;;36.20;17.10;;;23.30;46.20;;;;;;6104653;28;84500;-64
2022/01/18 11:57:32;;;;;;;44.38;17.73;;;23.30;46.40;;;;;;6104726;28;83879;-62
2022/01/18 12:00:33;;;;;;;34.72;16.02;;;23.30;46.20;;;;;;6104436;28;82899;-64
2022/01/18 12:03:33;;;;;;;40.67;17.23;;;23.30;46.60;;;;;;6104599;28;83223;-64
2022/01/18 12:06:34;;;;;;;38.97;14.20;;;23.30;46.10;;;;;;6102881;28;83330;-63
2022/01/18 12:09:34;;;;;;;41.63;16.23;;;23.30;45.70;;;;;;6099743;28;84405;-65
2022/01/18 12:12:35;;;;;;;36.72;15.05;;;23.30;45.60;;;;;;6097272;28;83490;-67
2022/01/18 12:15:39;;;;;;;43.75;15.75;;;23.30;45.80;;;;;;6067830;28;84324;-65
2022/01/18 12:18:40;;;;;;;37.63;15.43;;;23.30;45.40;;;;;;6105673;28;83647;-63
2022/01/18 12:21:40;;;;;;;37.53;13.63;;;23.30;44.90;;;;;;6096015;28;82876;-65
2022/01/18 12:24:46;;;;;;;31.73;14.15;;;23.30;45.00;;;;;;6075933;28;83867;-64
2022/01/18 12:27:48;;;;;;;29.08;13.23;;;23.20;45.80;;;;;;6096208;28;84347;-65
2022/01/18 12:31:06;;;;;;;30.52;13.05;;;23.30;46.30;;;;;;6104104;28;84039;-65
2022/01/18 12:34:07;;;;;;;24.23;11.02;;;23.20;46.30;;;;;;6105333;28;83144;-64
2022/01/18 12:37:08;;;;;;;28.50;11.40;;;23.20;46.20;;;;;;6089781;28;83852;-64
2022/01/18 12:40:09;;;;;;;25.27;10.77;;;23.20;46.20;;;;;;6103280;28;83141;-65
2022/01/18 12:46:10;;;;;;;25.95;10.85;;;23.10;46.10;;;;;;6104472;28;82366;-65
2022/01/18 12:49:11;;;;;;;24.55;10.00;;;23.20;45.60;;;;;;6096547;28;83132;-65
2022/01/18 12:52:11;;;;;;;28.48;11.82;;;23.10;45.40;;;;;;6098854;28;84101;-67
2022/01/18 12:55:12;;;;;;;19.25;8.82;;;23.20;45.40;;;;;;6095659;28;82932;-63
2022/01/18 12:58:14;;;;;;;23.35;9.38;;;23.20;45.50;;;;;;6103158;28;83051;-64
2022/01/18 13:01:14;;;;;;;13.95;7.18;;;23.20;45.70;;;;;;6106466;28;80917;-65
2022/01/18 13:04:15;;;;;;;19.60;7.03;;;23.00;46.90;;;;;;6103824;28;81840;-65
2022/01/18 13:07:15;;;;;;;10.60;5.65;;;23.10;47.20;;;;;;6094420;28;80938;-66
2022/01/18 13:10:16;;;;;;;12.85;5.18;;;23.10;48.20;;;;;;6079324;28;83202;-66
2022/01/18 13:13:19;;;;;;;15.48;5.00;;;23.00;48.60;;;;;;6109600;28;80568;-63
2022/01/18 13:22:57;;;;;;;8.13;3.90;;;23.10;48.90;;;;;;6096623;28;81939;-67
2022/01/18 13:26:01;;;;;;;9.63;3.92;;;23.00;49.10;;;;;;6106365;28;86186;-65
2022/01/18 13:29:01;;;;;;;8.40;3.95;;;23.00;50.00;;;;;;6099837;28;80596;-65
2022/01/18 13:32:02;;;;;;;6.60;3.83;;;22.90;50.20;;;;;;6095708;28;80926;-65
2022/01/18 13:35:04;;;;;;;7.35;3.67;;;22.90;50.30;;;;;;6100664;28;80953;-65
2022/01/18 13:38:05;;;;;;;6.47;3.97;;;22.90;50.70;;;;;;6102211;28;80781;-64
2022/01/18 13:41:06;;;;;;;5.38;3.13;;;22.90;50.70;;;;;;6084385;28;83328;-64
2022/01/18 13:44:06;;;;;;;11.18;3.40;;;22.90;51.30;;;;;;6104896;28;81884;-67
2022/01/18 13:47:07;;;;;;;6.85;3.00;;;22.90;51.30;;;;;;6107513;28;80950;-64
2022/01/18 13:50:07;;;;;;;5.90;3.10;;;22.80;51.30;;;;;;6108901;28;80340;-64
2022/01/18 13:53:08;;;;;;;6.80;2.75;;;22.80;51.60;;;;;;6108178;28;80472;-65
2022/01/18 13:56:08;;;;;;;6.45;3.38;;;22.90;51.30;;;;;;6095050;28;85105;-66
2022/01/18 13:59:09;;;;;;;9.00;3.30;;;23.00;51.10;;;;;;6094390;28;80865;-65
2022/01/18 14:02:09;;;;;;;5.97;3.22;;;23.00;51.20;;;;;;6099645;28;82537;-64
2022/01/18 14:05:10;;;;;;;6.00;3.22;;;23.00;50.40;;;;;;6107704;28;80601;-63
2022/01/18 14:08:11;;;;;;;6.57;3.03;;;23.00;50.20;;;;;;6104095;28;80574;-64
2022/01/18 14:11:12;;;;;;;7.00;3.17;;;23.00;49.70;;;;;;6098588;28;80340;-65
2022/01/18 14:14:12;;;;;;;11.05;3.10;;;23.00;49.40;;;;;;6096124;28;81001;-63
2022/01/18 14:17:13;;;;;;;8.63;3.60;;;23.00;48.90;;;;;;6079643;28;81718;-64
2022/01/18 14:20:15;;;;;;;13.02;3.67;;;22.90;48.60;;;;;;6104613;28;80788;-64
2022/01/18 14:23:16;;;;;;;8.25;3.50;;;22.90;49.50;;;;;;6081258;28;80648;-63
2022/01/18 14:26:16;;;;;;;10.05;3.83;;;22.90;48.80;;;;;;6103716;28;81469;-64
2022/01/18 14:29:17;;;;;;;6.70;3.72;;;22.90;48.70;;;;;;6107601;28;80175;-63
2022/01/18 14:32:17;;;;;;;6.03;3.33;;;22.80;48.60;;;;;;6107025;28;81762;-63
2022/01/18 14:35:18;;;;;;;7.75;4.18;;;22.80;48.60;;;;;;6091546;28;80991;-63
2022/01/18 14:38:18;;;;;;;6.28;3.28;;;22.80;48.30;;;;;;6110047;28;80544;-65
2022/01/18 14:41:19;;;;;;;8.27;3.70;;;22.80;49.40;;;;;;6108368;28;82019;-63
2022/01/18 14:44:35;;;;;;;8.05;3.80;;;22.90;49.90;;;;;;6095449;28;80160;-63
2022/01/18 14:47:35;;;;;;;7.40;3.83;;;22.90;50.00;;;;;;6107863;28;81559;-62
2022/01/18 14:50:36;;;;;;;8.35;3.80;;;22.80;49.20;;;;;;6093090;28;80481;-65
2022/01/18 14:53:36;;;;;;;6.70;3.50;;;22.90;48.70;;;;;;6108867;28;81026;-63
2022/01/18 14:56:37;;;;;;;9.98;3.83;;;22.90;48.50;;;;;;6109723;28;81862;-64
2022/01/18 14:59:37;;;;;;;6.10;3.10;;;22.80;48.70;;;;;;6101188;28;80704;-63
2022/01/18 15:02:38;;;;;;;6.97;3.90;;;22.80;48.20;;;;;;6103076;28;81458;-64
2022/01/18 15:05:39;;;;;;;6.90;3.95;;;22.80;48.40;;;;;;6108870;28;81366;-65
2022/01/18 15:08:39;;;;;;;11.23;4.28;;;22.90;47.90;;;;;;6099061;28;81276;-64
2022/01/18 15:11:40;;;;;;;8.00;3.83;;;23.00;47.90;;;;;;6097033;28;80783;-65
2022/01/18 15:14:40;;;;;;;9.38;4.50;;;23.00;47.80;;;;;;6108374;28;83775;-64
2022/01/18 15:17:41;;;;;;;6.88;4.30;;;23.00;47.90;;;;;;6109010;28;80942;-65
2022/01/18 15:20:41;;;;;;;11.20;4.65;;;23.10;48.00;;;;;;6105658;28;80100;-66
2022/01/18 15:23:42;;;;;;;10.70;4.20;;;23.10;48.00;;;;;;6101954;28;81957;-64
2022/01/18 15:26:42;;;;;;;8.65;4.47;;;23.10;47.70;;;;;;6098479;28;82043;-66
2022/01/18 15:29:43;;;;;;;7.78;3.55;;;23.20;47.80;;;;;;6100626;28;81120;-66
2022/01/18 15:32:44;;;;;;;8.63;4.25;;;23.20;47.80;;;;;;6093433;28;80963;-65
2022/01/18 15:35:44;;;;;;;11.45;5.35;;;23.30;47.60;;;;;;6106076;28;81767;-65
2022/01/18 15:38:45;;;;;;;6.50;4.30;;;23.30;47.60;;;;;;6075666;28;80704;-64
2022/01/18 15:41:46;;;;;;;8.35;4.45;;;23.30;47.30;;;;;;6109613;28;80896;-65
2022/01/18 15:44:46;;;;;;;7.30;3.92;;;23.30;47.30;;;;;;6086104;28;80967;-64
2022/01/18 15:47:47;;;;;;;9.32;4.78;;;23.30;47.10;;;;;;6109553;28;80655;-65
2022/01/18 15:50:47;;;;;;;10.20;4.28;;;23.30;47.10;;;;;;6093806;28;80907;-64
2022/01/18 15:53:48;;;;;;;7.30;4.28;;;23.30;47.00;;;;;;6108666;28;80243;-64
2022/01/18 15:56:48;;;;;;;13.65;6.07;;;23.20;46.90;;;;;;6083302;28;83043;-65
2022/01/18 15:59:49;;;;;;;13.00;5.78;;;23.20;46.70;;;;;;6101349;28;80556;-66
2022/01/18 16:02:50;;;;;;;8.75;4.68;;;23.20;46.70;;;;;;6095933;28;80664;-66
2022/01/18 16:05:52;;;;;;;8.93;5.22;;;23.20;46.50;;;;;;6096114;28;81039;-64
2022/01/18 16:08:53;;;;;;;11.57;5.07;;;23.20;46.50;;;;;;6093028;28;80465;-66
2022/01/18 16:11:54;;;;;;;10.93;5.18;;;23.20;46.30;;;;;;6102857;28;80587;-67
2022/01/18 16:14:54;;;;;;;10.63;4.90;;;23.20;45.60;;;;;;6090702;28;81632;-66
2022/01/18 16:17:55;;;;;;;10.43;4.78;;;23.10;45.80;;;;;;6107741;28;81756;-66
2022/01/18 16:20:55;;;;;;;9.95;5.25;;;23.10;45.60;;;;;;6084838;28;83249;-67
2022/01/18 16:23:56;;;;;;;7.68;4.47;;;23.10;45.70;;;;;;6091711;28;81038;-66
2022/01/18 16:26:58;;;;;;;12.57;5.43;;;23.10;45.70;;;;;;6104996;28;80560;-65
2022/01/18 16:29:58;;;;;;;11.23;5.50;;;23.10;46.00;;;;;;6078553;28;80343;-67
2022/01/18 16:32:59;;;;;;;14.10;6.65;;;23.10;45.70;;;;;;6108341;28;80544;-64
2022/01/18 16:35:59;;;;;;;13.18;6.13;;;23.10;46.00;;;;;;6107688;28;80413;-64
2022/01/18 16:39:00;;;;;;;130.15;60.28;;;23.10;45.50;;;;;;6108864;28;80457;-66
2022/01/18 16:42:00;;;;;;;211.85;102.05;;;23.10;46.60;;;;;;6105093;28;83362;-65
2022/01/18 16:45:01;;;;;;;177.88;88.65;;;23.10;47.10;;;;;;6097722;28;86229;-67
2022/01/18 16:48:01;;;;;;;111.85;53.70;;;23.10;46.90;;;;;;6087064;28;86446;-66
2022/01/18 16:51:03;;;;;;;127.88;59.20;;;23.10;45.90;;;;;;6105933;28;83307;-66